createdAt,value
2018-09-24T00:02:31.043Z,0.53
2018-09-24T00:05:16.876Z,0.50
2018-09-24T00:42:29.375Z,0.40
2018-09-24T00:45:00.674Z,0.40
2018-09-24T00:47:54.047Z,0.40
2018-09-24T00:50:27.088Z,0.40
2018-09-24T01:10:09.840Z,0.40
2018-09-24T01:13:02.795Z,0.40
2018-09-24T01:15:34.133Z,0.40
2018-09-24T01:18:31.697Z,0.40
2018-09-24T01:21:04.359Z,0.40
2018-09-24T01:24:09.309Z,0.40
2018-09-24T01:27:12.065Z,0.40
2018-09-24T01:32:59.676Z,0.40
2018-09-24T01:38:21.636Z,0.30
2018-09-24T01:41:15.024Z,0.40
2018-09-24T01:44:01.212Z,0.40
2018-09-24T01:46:33.075Z,0.40
2018-09-24T01:49:05.964Z,0.40
2018-09-24T01:51:40.676Z,0.50
2018-09-24T01:54:12.182Z,0.40
2018-09-24T01:59:54.423Z,0.60
2018-09-24T02:02:25.908Z,0.50
2018-09-24T02:04:57.600Z,0.40
2018-09-24T02:07:38.405Z,0.47
2018-09-24T02:10:25.856Z,0.47
2018-09-24T02:16:10.090Z,0.67
2018-09-24T04:28:05.533Z,0.43
2018-09-24T05:08:15.468Z,0.53
2018-09-24T05:10:51.284Z,0.50
2018-09-24T05:16:50.673Z,0.70
2018-09-24T05:19:25.763Z,0.50
2018-09-24T05:22:26.077Z,0.60
2018-09-24T05:25:00.969Z,0.40
2018-09-24T05:27:35.918Z,0.50
2018-09-24T05:30:10.852Z,0.40
2018-09-24T05:32:47.744Z,0.70
2018-09-24T05:35:23.403Z,0.40
2018-09-24T05:37:59.438Z,0.37
2018-09-24T05:40:34.337Z,0.40
2018-09-24T05:43:09.331Z,0.40
2018-09-24T05:45:45.054Z,0.40
2018-09-24T05:48:21.261Z,0.40
2018-09-24T05:50:57.186Z,0.40
2018-09-24T05:53:32.077Z,0.50
2018-09-24T05:56:06.969Z,0.40
2018-09-24T05:58:41.777Z,0.40
2018-09-24T06:01:16.640Z,0.40
2018-09-24T06:03:51.680Z,0.40
2018-09-24T06:06:27.309Z,0.40
2018-09-24T06:09:03.937Z,0.40
2018-09-24T06:11:39.185Z,0.40
2018-09-24T06:14:15.140Z,0.40
2018-09-24T06:16:50.888Z,0.40
2018-09-24T06:19:26.933Z,0.40
2018-09-24T06:22:02.131Z,0.40
2018-09-24T06:24:37.041Z,0.40
2018-09-24T06:27:13.051Z,0.40
2018-09-24T06:29:47.764Z,0.40
2018-09-24T06:32:23.509Z,0.40
2018-09-24T06:38:07.988Z,0.50
2018-09-24T06:40:42.041Z,0.40
2018-09-24T06:43:44.903Z,0.50
2018-09-24T06:46:19.972Z,0.30
2018-09-24T06:48:55.288Z,0.40
2018-09-24T06:51:30.425Z,0.40
2018-09-24T06:54:04.373Z,0.40
2018-09-24T06:56:38.303Z,0.30
2018-09-24T06:59:13.133Z,0.30
2018-09-24T07:01:48.963Z,0.37
2018-09-24T07:04:24.134Z,0.30
2018-09-24T07:06:58.052Z,0.30
2018-09-24T07:09:32.016Z,0.30
2018-09-24T07:12:05.831Z,0.30
2018-09-24T07:14:39.838Z,0.40
2018-09-24T07:17:13.871Z,0.40
2018-09-24T07:19:48.508Z,0.30
2018-09-24T07:22:22.410Z,0.40
2018-09-24T07:24:56.188Z,0.40
2018-09-24T07:27:30.164Z,0.30
2018-09-24T07:30:04.211Z,0.30
2018-09-24T07:32:38.183Z,0.37
2018-09-24T07:35:13.521Z,0.30
2018-09-24T07:37:48.683Z,0.30
2018-09-24T07:40:24.227Z,0.30
2018-09-24T07:43:00.205Z,0.30
2018-09-24T07:45:36.281Z,0.30
2018-09-24T07:48:14.024Z,0.40
2018-09-24T07:50:50.951Z,0.40
2018-09-24T07:53:26.732Z,0.50
2018-09-24T07:56:02.865Z,0.40
2018-09-24T07:58:38.555Z,0.50
2018-09-24T08:01:13.852Z,0.40
2018-09-24T08:03:48.745Z,0.40
2018-09-24T08:06:23.600Z,2.60
2018-09-24T08:08:59.209Z,0.83
2018-09-24T08:11:35.358Z,0.50
2018-09-24T08:14:10.143Z,0.40
2018-09-24T08:16:46.222Z,0.40
2018-09-24T08:19:21.875Z,0.60
2018-09-24T08:21:57.106Z,0.40
2018-09-24T08:24:36.760Z,0.40
2018-09-24T08:27:12.556Z,0.50
2018-09-24T08:29:48.964Z,0.60
2018-09-24T08:32:32.400Z,0.40
2018-09-24T08:35:11.771Z,0.40
2018-09-24T08:37:47.496Z,0.50
2018-09-24T08:40:23.565Z,0.40
2018-09-24T08:43:01.496Z,0.50
2018-09-24T08:45:41.166Z,0.40
2018-09-24T08:48:18.285Z,0.50
2018-09-24T08:50:53.280Z,0.33
2018-09-24T08:53:34.110Z,0.43
2018-09-24T08:56:14.419Z,0.50
2018-09-24T08:58:50.053Z,0.40
2018-09-24T09:01:30.728Z,0.40
2018-09-24T09:04:06.532Z,0.40
2018-09-24T09:06:41.767Z,0.40
2018-09-24T09:09:18.548Z,0.40
2018-09-24T09:11:53.477Z,0.30
2018-09-24T09:14:28.501Z,0.40
2018-09-24T09:17:08.817Z,0.30
2018-09-24T09:19:45.388Z,0.40
2018-09-24T09:22:21.203Z,0.40
2018-09-24T09:24:56.270Z,0.40
2018-09-24T09:27:31.397Z,0.40
2018-09-24T09:30:07.717Z,0.43
2018-09-24T09:32:43.671Z,0.50
2018-09-24T09:35:18.828Z,0.50
2018-09-24T09:37:55.341Z,0.40
2018-09-24T09:40:30.554Z,0.40
2018-09-24T09:43:07.123Z,0.40
2018-09-24T09:45:42.341Z,0.40
2018-09-24T09:48:17.080Z,0.33
2018-09-24T09:50:52.909Z,0.40
2018-09-24T09:53:28.707Z,0.30
2018-09-24T09:56:03.950Z,0.40
2018-09-24T09:58:38.885Z,0.30
2018-09-24T10:01:15.379Z,0.30
2018-09-24T10:03:51.403Z,0.30
2018-09-24T10:06:26.531Z,0.40
2018-09-24T10:09:01.367Z,0.30
2018-09-24T10:11:36.194Z,0.60
2018-09-24T10:14:11.231Z,0.43
2018-09-24T10:16:48.814Z,0.47
2018-09-24T10:22:15.100Z,0.47
2018-09-24T10:24:50.151Z,0.60
2018-09-24T10:30:19.167Z,0.50
2018-09-24T10:32:55.644Z,0.50
2018-09-24T10:35:30.971Z,0.60
2018-09-24T10:40:48.917Z,0.73
2018-09-24T10:43:25.575Z,0.60
2018-09-24T10:46:00.738Z,0.50
2018-09-24T10:48:37.991Z,0.50
2018-09-24T10:51:13.469Z,0.50
2018-09-24T10:53:49.328Z,0.40
2018-09-24T10:56:26.059Z,0.60
2018-09-24T10:59:03.809Z,0.43
2018-09-24T11:01:39.169Z,0.43
2018-09-24T11:04:21.903Z,0.40
2018-09-24T11:07:07.374Z,0.40
2018-09-24T11:09:45.085Z,0.70
2018-09-24T11:12:20.019Z,0.47
2018-09-24T11:14:58.095Z,0.50
2018-09-24T11:17:39.492Z,0.50
2018-09-24T11:20:17.333Z,0.40
2018-09-24T11:22:52.776Z,0.80
2018-09-24T11:25:29.711Z,0.67
2018-09-24T11:28:07.068Z,0.60
2018-09-24T11:30:44.943Z,0.50
2018-09-24T11:33:19.467Z,0.50
2018-09-24T11:35:54.370Z,0.40
2018-09-24T11:38:35.209Z,0.50
2018-09-24T11:41:10.256Z,0.40
2018-09-24T11:43:45.116Z,0.50
2018-09-24T11:46:21.346Z,0.50
2018-09-24T11:48:57.809Z,0.50
2018-09-24T11:51:33.881Z,0.50
2018-09-24T11:54:09.806Z,0.63
2018-09-24T11:56:46.681Z,0.40
2018-09-24T11:59:23.332Z,0.50
2018-09-24T12:01:58.542Z,0.50
2018-09-24T12:04:35.440Z,0.40
2018-09-24T12:07:11.056Z,0.60
2018-09-24T12:09:56.799Z,0.50
2018-09-24T12:12:33.141Z,0.77
2018-09-24T12:23:57.530Z,0.63
2018-09-24T12:30:49.834Z,0.43
2018-09-24T12:33:26.804Z,0.50
2018-09-24T12:36:02.086Z,0.50
2018-09-24T12:38:38.647Z,0.53
2018-09-24T12:41:39.840Z,0.50
2018-09-24T12:47:48.918Z,0.40
2018-09-24T13:11:37.746Z,0.60
2018-09-24T13:23:11.415Z,1.35
2018-09-24T13:29:33.343Z,0.60
2018-09-24T13:32:49.096Z,0.70
2018-09-24T13:42:01.173Z,0.70
2018-09-24T13:56:25.773Z,0.63
2018-09-24T13:59:04.720Z,0.80
2018-09-24T14:04:47.926Z,0.60
2018-09-24T14:14:01.915Z,0.80
2018-09-24T14:19:36.236Z,0.93
2018-09-24T14:22:12.017Z,0.80
2018-09-24T14:24:46.906Z,0.70
2018-09-24T14:27:22.617Z,0.90
2018-09-24T14:29:58.432Z,1.13
2018-09-24T14:32:34.432Z,0.83
2018-09-24T14:35:10.436Z,0.83
2018-09-24T14:37:45.623Z,0.60
2018-09-24T14:40:22.025Z,0.57
2018-09-24T14:42:58.124Z,0.70
2018-09-24T14:45:34.024Z,0.53
2018-09-24T14:48:09.097Z,0.70
2018-09-24T14:50:44.914Z,0.70
2018-09-24T14:53:20.720Z,0.70
2018-09-24T14:55:56.731Z,0.70
2018-09-24T14:58:32.738Z,1.40
2018-09-24T15:01:07.888Z,0.57
2018-09-24T15:03:42.825Z,1.17
2018-09-24T15:06:17.732Z,0.60
2018-09-24T15:08:53.287Z,0.90
2018-09-24T15:11:29.130Z,1.20
2018-09-24T15:14:05.400Z,0.90
2018-09-24T15:16:42.106Z,0.90
2018-09-24T15:19:17.075Z,1.40
2018-09-24T15:21:53.285Z,1.13
2018-09-24T15:24:31.779Z,1.03
2018-09-24T15:27:09.593Z,0.70
2018-09-24T15:29:44.792Z,0.70
2018-09-24T15:32:19.953Z,0.80
2018-09-24T15:34:54.818Z,0.70
2018-09-24T15:37:29.705Z,0.97
2018-09-24T15:40:05.327Z,0.70
2018-09-24T15:42:40.598Z,1.10
2018-09-24T15:45:16.339Z,0.60
2018-09-24T15:47:51.227Z,0.73
2018-09-24T15:50:26.219Z,0.83
2018-09-24T15:53:01.161Z,1.23
2018-09-24T15:55:36.869Z,0.90
2018-09-24T15:58:12.035Z,0.90
2018-09-24T16:00:46.965Z,0.77
2018-09-24T16:03:21.916Z,1.27
2018-09-24T16:05:57.437Z,0.83
2018-09-24T16:08:32.612Z,1.13
2018-09-24T16:11:08.289Z,1.10
2018-09-24T16:13:43.596Z,0.87
2018-09-24T16:16:19.136Z,1.00
2018-09-24T16:18:55.357Z,0.80
2018-09-24T16:21:30.408Z,1.13
2018-09-24T16:24:05.344Z,0.93
2018-09-24T16:26:40.103Z,1.10
2018-09-24T16:29:15.863Z,0.90
2018-09-24T16:31:50.792Z,0.70
2018-09-24T16:34:26.768Z,1.20
2018-09-24T16:37:01.687Z,1.53
2018-09-24T16:39:36.711Z,1.80
2018-09-24T16:42:11.646Z,1.67
2018-09-24T16:44:46.327Z,1.20
2018-09-24T16:47:20.659Z,1.47
2018-09-24T16:49:54.534Z,1.10
2018-09-24T16:52:28.726Z,1.23
2018-09-24T16:55:02.563Z,1.00
2018-09-24T16:57:36.575Z,1.57
2018-09-24T17:00:10.584Z,2.40
2018-09-24T17:02:44.451Z,2.00
2018-09-24T17:05:18.363Z,2.40
2018-09-24T17:07:52.244Z,2.20
2018-09-24T17:10:26.116Z,1.77
2018-09-24T17:13:00.112Z,2.10
2018-09-24T17:15:34.154Z,1.67
2018-09-24T17:18:08.035Z,1.67
2018-09-24T17:20:41.997Z,2.07
2018-09-24T17:23:16.883Z,1.70
2018-09-24T17:25:52.617Z,2.53
2018-09-24T17:28:27.616Z,1.70
2018-09-24T17:31:01.617Z,1.30
2018-09-24T17:33:35.783Z,1.30
2018-09-24T17:36:11.374Z,1.87
2018-09-24T17:38:47.388Z,1.30
2018-09-24T17:41:23.183Z,1.17
2018-09-24T17:43:57.103Z,1.07
2018-09-24T17:46:31.085Z,1.23
2018-09-24T17:49:05.312Z,1.17
2018-09-24T17:51:39.299Z,1.97
2018-09-24T17:54:13.155Z,1.70
2018-09-24T17:56:47.604Z,1.17
2018-09-24T17:59:21.492Z,1.17
2018-09-24T18:01:55.327Z,1.20
2018-09-24T18:04:29.572Z,1.10
2018-09-24T18:07:03.533Z,1.40
2018-09-24T18:09:37.962Z,1.30
2018-09-24T18:12:12.004Z,1.07
2018-09-24T18:14:45.975Z,1.20
2018-09-24T18:17:21.625Z,1.17
2018-09-24T18:19:55.756Z,1.23
2018-09-24T18:22:29.552Z,0.70
2018-09-24T18:25:03.860Z,1.40
2018-09-24T18:27:38.647Z,1.00
2018-09-24T18:30:13.621Z,1.10
2018-09-24T18:32:48.411Z,1.43
2018-09-24T18:35:23.039Z,1.63
2018-09-24T18:37:57.064Z,1.50
2018-09-24T18:40:31.625Z,1.57
2018-09-24T18:43:05.529Z,2.40
2018-09-24T18:45:39.460Z,1.30
2018-09-24T18:48:13.631Z,1.42
2018-09-24T18:50:47.779Z,1.63
2018-09-24T18:53:22.262Z,1.30
2018-09-24T18:55:56.231Z,1.60
2018-09-24T18:58:30.667Z,1.40
2018-09-24T19:01:04.678Z,1.40
2018-09-24T19:03:38.891Z,1.30
2018-09-24T19:06:13.079Z,1.20
2018-09-24T19:08:47.024Z,1.77
2018-09-24T19:11:27.785Z,1.10
2018-09-24T19:14:19.759Z,1.27
2018-09-24T19:16:54.747Z,1.57
2018-09-24T19:19:29.547Z,1.10
2018-09-24T19:22:03.473Z,1.10
2018-09-24T19:24:39.933Z,0.97
2018-09-24T19:27:14.882Z,0.90
2018-09-24T19:29:48.930Z,1.70
2018-09-24T19:32:22.908Z,1.50
2018-09-24T19:34:57.025Z,1.17
2018-09-24T19:37:31.393Z,1.00
2018-09-24T19:40:05.329Z,1.10
2018-09-24T19:42:39.603Z,1.23
2018-09-24T19:45:15.356Z,1.00
2018-09-24T19:47:50.479Z,1.10
2018-09-24T19:50:25.035Z,1.00
2018-09-24T19:52:59.069Z,0.93
2018-09-24T19:55:32.868Z,1.37
2018-09-24T19:58:06.832Z,1.37
2018-09-24T20:00:40.568Z,1.10
2018-09-24T20:03:15.491Z,1.63
2018-09-24T20:05:50.739Z,0.70
2018-09-24T20:08:25.457Z,1.00
2018-09-24T20:11:00.141Z,0.70
2018-09-24T20:13:34.388Z,0.80
2018-09-24T20:16:08.216Z,0.80
2018-09-24T20:18:43.787Z,0.60
2018-09-24T20:21:17.816Z,1.20
2018-09-24T20:23:55.428Z,1.43
2018-09-24T20:26:29.716Z,1.80
2018-09-24T20:29:04.050Z,1.10
2018-09-24T20:31:40.297Z,1.13
2018-09-24T20:34:14.378Z,0.87
2018-09-24T20:36:48.188Z,0.90
2018-09-24T20:39:22.260Z,1.23
2018-09-24T20:41:56.138Z,0.97
2018-09-24T20:44:30.055Z,0.70
2018-09-24T20:47:04.050Z,1.30
2018-09-24T20:49:38.077Z,1.57
2018-09-24T20:52:11.979Z,1.20
2018-09-24T20:54:45.838Z,0.80
2018-09-24T20:57:19.819Z,0.90
2018-09-24T20:59:53.790Z,1.00
2018-09-24T21:02:27.938Z,0.80
2018-09-24T21:05:02.006Z,0.80
2018-09-24T21:07:36.019Z,1.10
2018-09-24T21:10:10.530Z,1.33
2018-09-24T21:12:44.316Z,0.80
2018-09-24T21:15:18.229Z,0.90
2018-09-24T21:17:52.044Z,0.93
2018-09-24T21:20:25.944Z,0.80
2018-09-24T21:22:59.939Z,0.70
2018-09-24T21:25:33.775Z,1.00
2018-09-24T21:28:07.707Z,0.83
2018-09-24T21:30:41.682Z,0.87
2018-09-24T21:33:15.749Z,1.20
2018-09-24T21:35:49.860Z,1.40
2018-09-24T21:38:23.651Z,1.20
2018-09-24T21:40:57.671Z,3.13
2018-09-24T21:43:31.658Z,1.07
2018-09-24T21:46:05.631Z,1.00
2018-09-24T21:48:39.954Z,1.00
2018-09-24T21:51:13.784Z,1.03
2018-09-24T21:53:47.893Z,1.03
2018-09-24T21:56:21.890Z,1.15
2018-09-24T21:58:56.039Z,1.40
2018-09-24T22:01:30.124Z,0.90
2018-09-24T22:04:04.213Z,0.88
2018-09-24T22:06:38.439Z,1.02
2018-09-24T22:09:14.140Z,1.50
2018-09-24T22:11:48.690Z,1.02
2018-09-24T22:14:23.447Z,1.40
2018-09-24T22:16:57.517Z,1.10
2018-09-24T22:19:31.564Z,1.32
2018-09-24T22:22:05.763Z,1.22
2018-09-24T22:24:39.995Z,1.20
2018-09-24T22:27:14.107Z,1.20
2018-09-24T22:29:48.200Z,1.40
2018-09-24T22:32:22.748Z,1.17
2018-09-24T22:34:56.907Z,1.42
2018-09-24T22:37:31.467Z,1.00
2018-09-24T22:40:05.555Z,1.07
2018-09-24T22:42:39.849Z,1.30
2018-09-24T22:45:14.004Z,1.30
2018-09-24T22:47:48.211Z,1.20
2018-09-24T22:50:22.834Z,1.00
2018-09-24T22:52:58.423Z,1.10
2018-09-24T22:55:32.975Z,1.27
2018-09-24T22:58:07.091Z,1.35
2018-09-24T23:00:41.170Z,1.10
2018-09-24T23:03:15.371Z,1.30
2018-09-24T23:05:49.498Z,1.17
2018-09-24T23:08:23.647Z,0.98
2018-09-24T23:10:57.730Z,1.30
2018-09-24T23:13:31.891Z,0.85
2018-09-24T23:16:05.931Z,1.45
2018-09-24T23:18:40.139Z,0.98
2018-09-24T23:21:14.791Z,0.93
2018-09-24T23:23:49.212Z,1.25
2018-09-24T23:26:24.772Z,1.17
2018-09-24T23:28:59.939Z,1.47
2018-09-24T23:31:34.139Z,1.20
2018-09-24T23:34:08.190Z,1.60
2018-09-24T23:36:42.410Z,1.05
2018-09-24T23:39:16.519Z,0.93
2018-09-24T23:41:50.509Z,1.37
2018-09-24T23:44:24.631Z,1.10
2018-09-24T23:46:58.631Z,1.20
2018-09-24T23:49:32.765Z,1.07
2018-09-24T23:52:06.929Z,1.17
2018-09-24T23:54:41.059Z,1.50
2018-09-24T23:57:16.488Z,1.15
2018-09-24T23:59:52.053Z,1.00
